createdAt,value
2022-12-25T00:01:08.554Z,97860.88
2022-12-25T00:03:38.076Z,97857.44
2022-12-25T00:06:07.662Z,97850.59
2022-12-25T00:08:37.585Z,97841.09
2022-12-25T00:11:08.312Z,97838.47
2022-12-25T00:13:37.206Z,97833.31
2022-12-25T00:16:09.327Z,97821.34
2022-12-25T00:18:37.844Z,97820.47
2022-12-25T00:21:08.116Z,97818.78
2022-12-25T00:23:36.960Z,97824.00
2022-12-25T00:26:06.605Z,97827.34
2022-12-25T00:28:35.897Z,97832.47
2022-12-25T00:31:11.246Z,97829.06
2022-12-25T00:33:41.859Z,97832.41
2022-12-25T00:36:12.234Z,97837.47
2022-12-25T00:38:41.732Z,97837.28
2022-12-25T00:41:12.964Z,97830.34
2022-12-25T00:43:42.076Z,97830.44
2022-12-25T00:46:13.910Z,97822.66
2022-12-25T00:48:45.253Z,97821.81
2022-12-25T00:51:13.785Z,97818.13
2022-12-25T00:53:42.474Z,97823.81
2022-12-25T00:56:11.148Z,97821.38
2022-12-25T00:58:39.639Z,97826.53
2022-12-25T01:01:08.426Z,97828.38
2022-12-25T01:03:38.581Z,97843.00
2022-12-25T01:06:10.941Z,97842.25
2022-12-25T01:09:01.179Z,97839.69
2022-12-25T01:11:29.453Z,97836.50
2022-12-25T01:13:58.047Z,97842.50
2022-12-25T01:16:26.859Z,97840.63
2022-12-25T01:18:57.610Z,97835.50
2022-12-25T01:21:26.180Z,97836.97
2022-12-25T01:23:55.404Z,97836.88
2022-12-25T01:26:26.206Z,97835.94
2022-12-25T01:28:54.937Z,97839.44
2022-12-25T01:31:25.060Z,97839.22
2022-12-25T01:33:54.081Z,97839.28
2022-12-25T01:36:26.228Z,97853.75
2022-12-25T01:38:55.495Z,97848.53
2022-12-25T01:41:26.269Z,97847.69
2022-12-25T01:44:01.312Z,97857.97
2022-12-25T01:46:30.390Z,97853.75
2022-12-25T01:49:03.146Z,97841.78
2022-12-25T01:51:36.911Z,97844.34
2022-12-25T01:54:09.876Z,97845.28
2022-12-25T01:56:41.003Z,97851.25
2022-12-25T01:59:10.654Z,97847.44
2022-12-25T02:01:39.377Z,97852.59
2022-12-25T02:04:14.273Z,97859.34
2022-12-25T02:06:44.346Z,97853.50
2022-12-25T02:09:12.874Z,97854.34
2022-12-25T02:11:59.485Z,97850.00
2022-12-25T02:14:33.013Z,97855.09
2022-12-25T02:17:12.421Z,97856.06
2022-12-25T02:20:08.845Z,97853.59
2022-12-25T02:22:52.786Z,97859.59
2022-12-25T02:25:38.675Z,97853.00
2022-12-25T02:28:22.733Z,97857.81
2022-12-25T02:30:55.354Z,97854.22
2022-12-25T02:33:49.170Z,97856.72
2022-12-25T02:36:25.596Z,97863.47
2022-12-25T02:39:18.133Z,97853.13
2022-12-25T02:41:50.156Z,97855.63
2022-12-25T02:44:43.481Z,97839.41
2022-12-25T02:47:29.887Z,97842.06
2022-12-25T02:50:17.394Z,97844.72
2022-12-25T02:53:05.487Z,97837.88
2022-12-25T02:55:54.960Z,97848.91
2022-12-25T02:58:44.631Z,97840.53
2022-12-25T03:01:36.224Z,97834.69
2022-12-25T03:04:27.070Z,97830.25
2022-12-25T03:07:07.275Z,97837.19
2022-12-25T03:09:57.060Z,97832.06
2022-12-25T03:12:41.647Z,97833.00
2022-12-25T03:15:31.157Z,97836.41
2022-12-25T03:18:06.942Z,97837.34
2022-12-25T03:20:53.890Z,97837.34
2022-12-25T03:23:45.180Z,97823.56
2022-12-25T03:26:31.373Z,97823.66
2022-12-25T03:29:00.059Z,97825.31
2022-12-25T03:31:39.897Z,97820.16
2022-12-25T03:34:41.548Z,97815.69
2022-12-25T03:37:38.859Z,97810.63
2022-12-25T03:40:35.031Z,97802.78
2022-12-25T03:43:30.543Z,97813.19
2022-12-25T03:46:21.564Z,97809.78
2022-12-25T03:49:15.165Z,97796.75
2022-12-25T03:52:05.232Z,97793.28
2022-12-25T03:54:53.486Z,97794.97
2022-12-25T03:57:39.443Z,97804.31
2022-12-25T04:00:26.723Z,97793.97
2022-12-25T04:03:12.863Z,97787.94
2022-12-25T04:05:59.163Z,97789.59
2022-12-25T04:08:46.554Z,97790.59
2022-12-25T04:11:33.172Z,97785.50
2022-12-25T04:14:19.280Z,97789.06
2022-12-25T04:17:05.219Z,97782.16
2022-12-25T04:19:51.313Z,97778.69
2022-12-25T04:22:39.695Z,97784.72
2022-12-25T04:25:27.887Z,97781.38
2022-12-25T04:28:19.908Z,97774.72
2022-12-25T04:31:05.844Z,97768.63
2022-12-25T04:33:52.128Z,97766.19
2022-12-25T04:36:20.976Z,97762.72
2022-12-25T04:38:49.515Z,97767.91
2022-12-25T04:41:19.754Z,97776.31
2022-12-25T04:43:48.245Z,97761.88
2022-12-25T04:46:16.833Z,97761.94
2022-12-25T04:48:45.529Z,97768.69
2022-12-25T04:51:16.104Z,97771.25
2022-12-25T04:53:45.382Z,97776.59
2022-12-25T04:56:14.306Z,97773.25
2022-12-25T04:58:45.577Z,97764.84
2022-12-25T05:01:14.923Z,97769.22
2022-12-25T05:03:43.791Z,97772.69
2022-12-25T05:06:12.795Z,97767.41
2022-12-25T05:08:41.414Z,97755.53
2022-12-25T05:11:12.236Z,97758.94
2022-12-25T05:13:41.886Z,97761.38
2022-12-25T05:16:14.832Z,97760.56
2022-12-25T05:18:43.936Z,97756.38
2022-12-25T05:21:13.094Z,97757.13
2022-12-25T05:23:48.237Z,97753.72
2022-12-25T05:26:18.492Z,97746.94
2022-12-25T05:28:47.125Z,97739.09
2022-12-25T05:31:17.630Z,97743.38
2022-12-25T05:33:46.396Z,97744.22
2022-12-25T05:36:15.585Z,97733.06
2022-12-25T05:38:44.449Z,97731.19
2022-12-25T05:41:13.126Z,97729.47
2022-12-25T05:43:41.700Z,97722.47
2022-12-25T05:46:13.101Z,97715.59
2022-12-25T05:48:43.087Z,97724.75
2022-12-25T05:51:13.925Z,97722.13
2022-12-25T05:53:43.592Z,97719.44
2022-12-25T05:56:15.835Z,97722.00
2022-12-25T05:58:44.453Z,97715.06
2022-12-25T06:01:15.300Z,97721.84
2022-12-25T06:03:45.477Z,97718.38
2022-12-25T06:06:14.450Z,97708.94
2022-12-25T06:08:43.131Z,97711.38
2022-12-25T06:11:13.685Z,97715.75
2022-12-25T06:13:42.650Z,97709.59
2022-12-25T06:16:13.373Z,97715.69
2022-12-25T06:18:45.472Z,97723.38
2022-12-25T06:21:16.699Z,97717.97
2022-12-25T06:23:45.633Z,97721.22
2022-12-25T06:26:16.167Z,97724.78
2022-12-25T06:28:45.320Z,97718.75
2022-12-25T06:31:16.335Z,97704.97
2022-12-25T06:33:45.081Z,97700.84
2022-12-25T06:36:16.989Z,97687.16
2022-12-25T06:38:46.243Z,97697.16
2022-12-25T06:41:17.942Z,97696.38
2022-12-25T06:43:49.187Z,97692.63
2022-12-25T06:46:18.502Z,97683.09
2022-12-25T06:48:49.355Z,97689.00
2022-12-25T06:51:21.866Z,97692.38
2022-12-25T06:53:51.997Z,97699.38
2022-12-25T06:56:24.142Z,97704.38
2022-12-25T06:58:55.155Z,97702.69
2022-12-25T07:01:26.538Z,97708.56
2022-12-25T07:03:58.816Z,97703.28
2022-12-25T07:06:28.735Z,97695.59
2022-12-25T07:08:57.037Z,97691.22
2022-12-25T07:11:26.263Z,97692.84
2022-12-25T07:13:54.950Z,97699.59
2022-12-25T07:16:23.812Z,97709.03
2022-12-25T07:18:52.301Z,97720.00
2022-12-25T07:21:22.056Z,97706.13
2022-12-25T07:23:51.880Z,97721.50
2022-12-25T07:26:20.920Z,97712.72
2022-12-25T07:28:49.754Z,97718.75
2022-12-25T07:31:19.693Z,97711.06
2022-12-25T07:33:48.425Z,97721.19
2022-12-25T07:36:16.935Z,97721.34
2022-12-25T07:38:48.856Z,97709.09
2022-12-25T07:41:19.126Z,97710.63
2022-12-25T07:43:51.067Z,97705.25
2022-12-25T07:46:21.135Z,97709.44
2022-12-25T07:48:50.191Z,97702.56
2022-12-25T07:51:18.702Z,97700.69
2022-12-25T07:53:47.600Z,97697.13
2022-12-25T07:56:19.661Z,97701.44
2022-12-25T07:58:49.000Z,97697.13
2022-12-25T08:01:20.201Z,97696.09
2022-12-25T08:03:52.625Z,97697.81
2022-12-25T08:06:22.707Z,97691.63
2022-12-25T08:08:51.173Z,97686.31
2022-12-25T08:11:21.071Z,97683.59
2022-12-25T08:13:49.407Z,97680.13
2022-12-25T08:16:18.199Z,97690.19
2022-12-25T08:18:46.786Z,97690.31
2022-12-25T08:21:16.333Z,97679.69
2022-12-25T08:23:46.884Z,97687.41
2022-12-25T08:26:18.155Z,97692.38
2022-12-25T08:28:49.348Z,97689.69
2022-12-25T08:31:19.637Z,97689.69
2022-12-25T08:33:49.660Z,97695.56
2022-12-25T08:36:18.647Z,97697.69
2022-12-25T08:38:47.542Z,97686.34
2022-12-25T08:41:17.151Z,97686.81
2022-12-25T08:43:46.253Z,97681.03
2022-12-25T08:46:16.553Z,97679.50
2022-12-25T08:48:46.275Z,97673.06
2022-12-25T08:51:16.679Z,97680.63
2022-12-25T08:53:45.755Z,97687.38
2022-12-25T08:56:15.860Z,97688.13
2022-12-25T08:58:44.899Z,97684.56
2022-12-25T09:01:14.207Z,97681.66
2022-12-25T09:03:44.310Z,97670.44
2022-12-25T09:06:14.986Z,97668.44
2022-12-25T09:08:49.008Z,97667.53
2022-12-25T09:11:20.018Z,97664.88
2022-12-25T09:13:49.424Z,97665.22
2022-12-25T09:16:22.935Z,97660.50
2022-12-25T09:18:52.807Z,97665.03
2022-12-25T09:21:21.318Z,97654.16
2022-12-25T09:23:50.031Z,97639.84
2022-12-25T09:26:19.851Z,97631.78
2022-12-25T09:28:51.987Z,97625.34
2022-12-25T09:31:22.263Z,97625.59
2022-12-25T09:33:52.313Z,97623.50
2022-12-25T09:36:23.226Z,97615.16
2022-12-25T09:38:54.182Z,97609.56
2022-12-25T09:41:30.665Z,97614.47
2022-12-25T09:44:03.919Z,97617.25
2022-12-25T09:46:40.190Z,97620.22
2022-12-25T09:49:20.085Z,97622.94
2022-12-25T09:51:54.238Z,97616.75
2022-12-25T09:54:39.823Z,97610.03
2022-12-25T09:57:11.777Z,97615.09
2022-12-25T09:59:40.812Z,97610.81
2022-12-25T10:02:41.326Z,97609.97
2022-12-25T10:05:45.462Z,97614.28
2022-12-25T10:08:23.151Z,97604.19
2022-12-25T10:11:00.932Z,97614.59
2022-12-25T10:13:51.708Z,97606.69
2022-12-25T10:16:31.130Z,97614.41
2022-12-25T10:19:22.916Z,97603.47
2022-12-25T10:21:57.740Z,97619.25
2022-12-25T10:24:36.109Z,97612.44
2022-12-25T10:27:14.347Z,97609.25
2022-12-25T10:29:45.487Z,97611.66
2022-12-25T10:32:14.001Z,97611.69
2022-12-25T10:34:43.574Z,97614.69
2022-12-25T10:37:14.043Z,97607.44
2022-12-25T10:39:46.604Z,97602.97
2022-12-25T10:42:28.108Z,97601.94
2022-12-25T10:44:58.566Z,97596.41
2022-12-25T10:47:31.405Z,97599.53
2022-12-25T10:50:01.281Z,97602.63
2022-12-25T10:52:31.049Z,97594.44
2022-12-25T10:54:59.638Z,97591.19
2022-12-25T10:57:31.016Z,97577.09
2022-12-25T11:00:00.416Z,97577.13
2022-12-25T11:02:30.214Z,97555.81
2022-12-25T11:05:04.488Z,97567.03
2022-12-25T11:07:54.237Z,97553.09
2022-12-25T11:10:26.052Z,97548.63
2022-12-25T11:12:55.053Z,97544.63
2022-12-25T11:15:37.719Z,97548.84
2022-12-25T11:18:20.010Z,97541.59
2022-12-25T11:20:53.162Z,97536.06
2022-12-25T11:23:24.787Z,97534.41
2022-12-25T11:25:58.218Z,97536.91
2022-12-25T11:28:28.042Z,97535.75
2022-12-25T11:31:02.850Z,97523.91
2022-12-25T11:33:36.482Z,97515.34
2022-12-25T11:36:13.744Z,97516.00
2022-12-25T11:38:43.893Z,97523.72
2022-12-25T11:41:14.983Z,97520.94
2022-12-25T11:43:49.495Z,97523.78
2022-12-25T11:46:23.070Z,97521.13
2022-12-25T11:48:56.208Z,97509.13
2022-12-25T11:51:28.747Z,97511.38
2022-12-25T11:54:05.013Z,97510.78
2022-12-25T11:56:33.899Z,97516.56
2022-12-25T11:59:07.525Z,97517.19
2022-12-25T12:01:45.024Z,97517.81
2022-12-25T12:04:23.118Z,97512.56
2022-12-25T12:06:59.708Z,97501.84
2022-12-25T12:09:42.065Z,97498.53
2022-12-25T12:12:18.923Z,97499.44
2022-12-25T12:14:57.845Z,97501.72
2022-12-25T12:17:26.328Z,97499.31
2022-12-25T12:19:54.901Z,97493.44
2022-12-25T12:22:26.596Z,97481.50
2022-12-25T12:25:01.444Z,97480.75
2022-12-25T12:27:36.085Z,97461.47
2022-12-25T12:30:07.152Z,97461.28
2022-12-25T12:32:40.206Z,97461.38
2022-12-25T12:35:18.979Z,97447.88
2022-12-25T12:37:51.717Z,97440.16
2022-12-25T12:40:34.768Z,97441.00
2022-12-25T12:43:03.939Z,97442.13
2022-12-25T12:45:35.801Z,97431.19
2022-12-25T12:48:15.607Z,97430.94
2022-12-25T12:50:44.419Z,97432.41
2022-12-25T12:53:29.387Z,97436.88
2022-12-25T12:56:10.582Z,97440.41
2022-12-25T12:58:45.090Z,97449.81
2022-12-25T13:01:36.886Z,97458.66
2022-12-25T13:04:18.607Z,97465.69
2022-12-25T13:06:54.076Z,97457.94
2022-12-25T13:09:36.982Z,97455.13
2022-12-25T13:12:08.696Z,97454.22
2022-12-25T13:14:38.214Z,97454.66
2022-12-25T13:17:07.874Z,97451.44
2022-12-25T13:19:38.236Z,97453.78
2022-12-25T13:22:07.714Z,97435.63
2022-12-25T13:24:39.658Z,97449.28
2022-12-25T13:27:23.830Z,97452.72
2022-12-25T13:29:52.408Z,97461.81
2022-12-25T13:32:25.405Z,97444.09
2022-12-25T13:34:54.925Z,97433.34
2022-12-25T13:37:27.518Z,97433.81
2022-12-25T13:39:57.838Z,97434.63
2022-12-25T13:42:31.106Z,97435.84
2022-12-25T13:45:01.640Z,97448.72
2022-12-25T13:47:33.491Z,97458.91
2022-12-25T13:50:14.382Z,97457.19
2022-12-25T13:52:42.980Z,97459.94
2022-12-25T13:55:14.623Z,97459.94
2022-12-25T13:57:47.115Z,97449.06
2022-12-25T14:00:20.653Z,97441.00
2022-12-25T14:02:50.055Z,97436.31
2022-12-25T14:05:28.147Z,97433.19
2022-12-25T14:07:57.660Z,97440.56
2022-12-25T14:10:29.884Z,97441.09
2022-12-25T14:13:03.604Z,97439.06
2022-12-25T14:15:34.159Z,97436.50
2022-12-25T14:18:03.261Z,97434.03
2022-12-25T14:20:37.192Z,97419.84
2022-12-25T14:23:06.209Z,97425.16
2022-12-25T14:25:38.361Z,97423.63
2022-12-25T14:28:11.337Z,97421.59
2022-12-25T14:30:43.506Z,97429.94
2022-12-25T14:33:16.346Z,97430.16
2022-12-25T14:35:45.549Z,97437.84
2022-12-25T14:38:21.763Z,97439.69
2022-12-25T14:40:59.768Z,97434.09
2022-12-25T14:43:31.475Z,97439.47
2022-12-25T14:46:02.697Z,97451.41
2022-12-25T14:48:33.214Z,97446.97
2022-12-25T14:51:04.297Z,97453.00
2022-12-25T14:53:37.885Z,97435.03
2022-12-25T14:56:09.496Z,97432.97
2022-12-25T14:58:44.367Z,97420.16
2022-12-25T15:01:22.464Z,97431.09
2022-12-25T15:03:51.239Z,97432.16
2022-12-25T15:06:22.427Z,97428.84
2022-12-25T15:08:58.571Z,97444.97
2022-12-25T15:11:27.329Z,97447.41
2022-12-25T15:13:57.513Z,97450.66
2022-12-25T15:16:27.934Z,97456.91
2022-12-25T15:18:56.994Z,97455.22
2022-12-25T15:21:28.347Z,97453.75
2022-12-25T15:23:58.633Z,97461.03
2022-12-25T15:26:28.622Z,97458.53
2022-12-25T15:28:59.113Z,97457.31
2022-12-25T15:31:29.904Z,97455.00
2022-12-25T15:34:00.638Z,97450.06
2022-12-25T15:36:29.616Z,97457.69
2022-12-25T15:38:58.818Z,97449.66
2022-12-25T15:41:48.557Z,97459.09
2022-12-25T15:44:19.563Z,97460.50
2022-12-25T15:46:48.363Z,97463.00
2022-12-25T15:49:17.754Z,97461.75
2022-12-25T15:51:47.136Z,97466.91
2022-12-25T15:54:15.651Z,97462.06
2022-12-25T15:56:47.157Z,97457.28
2022-12-25T15:59:20.303Z,97444.25
2022-12-25T16:01:52.333Z,97445.88
2022-12-25T16:04:20.920Z,97443.59
2022-12-25T16:06:50.077Z,97444.09
2022-12-25T16:09:20.944Z,97448.94
2022-12-25T16:11:50.595Z,97455.75
2022-12-25T16:14:19.479Z,97455.09
2022-12-25T16:16:48.128Z,97464.34
2022-12-25T16:19:18.107Z,97453.94
2022-12-25T16:21:47.095Z,97458.84
2022-12-25T16:24:16.167Z,97456.59
2022-12-25T16:26:45.001Z,97461.13
2022-12-25T16:29:13.723Z,97468.47
2022-12-25T16:31:42.448Z,97468.78
2022-12-25T16:34:11.390Z,97470.53
2022-12-25T16:36:41.591Z,97481.06
2022-12-25T16:39:10.173Z,97479.63
2022-12-25T16:41:38.699Z,97488.75
2022-12-25T16:44:10.074Z,97476.16
2022-12-25T16:46:40.817Z,97480.38
2022-12-25T16:49:09.686Z,97476.97
2022-12-25T16:51:38.312Z,97484.91
2022-12-25T16:54:08.422Z,97478.41
2022-12-25T16:56:37.158Z,97477.97
2022-12-25T16:59:05.668Z,97476.38
2022-12-25T17:01:34.341Z,97465.41
2022-12-25T17:04:03.342Z,97457.28
2022-12-25T17:06:32.114Z,97466.94
2022-12-25T17:09:02.816Z,97475.97
2022-12-25T17:11:33.153Z,97481.47
2022-12-25T17:14:03.688Z,97473.47
2022-12-25T17:16:34.384Z,97483.38
2022-12-25T17:19:05.199Z,97489.66
2022-12-25T17:21:34.277Z,97492.34
2022-12-25T17:24:04.485Z,97482.09
2022-12-25T17:26:34.740Z,97486.09
2022-12-25T17:29:03.329Z,97484.34
2022-12-25T17:31:31.861Z,97477.13
2022-12-25T17:34:01.863Z,97476.59
2022-12-25T17:36:31.031Z,97474.00
2022-12-25T17:39:00.112Z,97467.00
2022-12-25T17:41:28.985Z,97470.84
2022-12-25T17:43:59.113Z,97472.56
2022-12-25T17:46:29.671Z,97481.13
2022-12-25T17:48:59.955Z,97470.97
2022-12-25T17:51:29.958Z,97472.38
2022-12-25T17:54:02.931Z,97468.13
2022-12-25T17:56:32.302Z,97474.69
2022-12-25T17:59:06.531Z,97483.16
2022-12-25T18:01:37.602Z,97474.19
2022-12-25T18:04:07.198Z,97489.50
2022-12-25T18:06:37.190Z,97498.72
2022-12-25T18:09:06.553Z,97497.06
2022-12-25T18:11:36.789Z,97505.69
2022-12-25T18:14:08.482Z,97504.94
2022-12-25T18:16:39.681Z,97507.03
2022-12-25T18:19:09.192Z,97508.38
2022-12-25T18:21:38.289Z,97511.97
2022-12-25T18:24:08.304Z,97502.03
2022-12-25T18:26:36.907Z,97499.34
2022-12-25T18:29:07.627Z,97501.09
2022-12-25T18:31:36.976Z,97507.59
2022-12-25T18:34:05.546Z,97517.91
2022-12-25T18:36:34.073Z,97520.34
2022-12-25T18:39:02.641Z,97512.44
2022-12-25T18:41:31.274Z,97519.91
2022-12-25T18:44:00.968Z,97526.66
2022-12-25T18:46:31.305Z,97530.53
2022-12-25T18:48:59.832Z,97527.50
2022-12-25T18:51:34.887Z,97533.66
2022-12-25T18:54:05.337Z,97528.91
2022-12-25T18:56:34.001Z,97534.28
2022-12-25T18:59:02.514Z,97531.72
2022-12-25T19:01:32.610Z,97538.84
2022-12-25T19:04:05.442Z,97542.59
2022-12-25T19:06:34.586Z,97540.16
2022-12-25T19:09:09.042Z,97533.81
2022-12-25T19:11:45.605Z,97536.28
2022-12-25T19:14:15.957Z,97540.84
2022-12-25T19:16:45.826Z,97539.41
2022-12-25T19:19:14.537Z,97543.22
2022-12-25T19:21:43.299Z,97541.31
2022-12-25T19:24:11.838Z,97534.50
2022-12-25T19:26:40.378Z,97541.94
2022-12-25T19:29:08.953Z,97547.38
2022-12-25T19:31:38.278Z,97546.13
2022-12-25T19:34:08.759Z,97548.28
2022-12-25T19:36:38.694Z,97544.06
2022-12-25T19:39:08.157Z,97550.44
2022-12-25T19:41:36.707Z,97552.19
2022-12-25T19:44:06.355Z,97550.34
2022-12-25T19:46:38.291Z,97549.88
2022-12-25T19:49:11.706Z,97552.81
2022-12-25T19:51:42.040Z,97552.44
2022-12-25T19:54:14.336Z,97553.72
2022-12-25T19:56:43.849Z,97548.69
2022-12-25T19:59:14.449Z,97545.66
2022-12-25T20:01:43.583Z,97554.78
2022-12-25T20:04:13.636Z,97551.59
2022-12-25T20:06:42.670Z,97561.44
2022-12-25T20:09:13.839Z,97551.25
2022-12-25T20:11:43.946Z,97562.84
2022-12-25T20:14:14.067Z,97562.31
2022-12-25T20:16:43.440Z,97569.31
2022-12-25T20:19:14.250Z,97576.78
2022-12-25T20:21:43.045Z,97574.19
2022-12-25T20:24:11.613Z,97580.88
2022-12-25T20:26:40.417Z,97571.38
2022-12-25T20:29:09.032Z,97577.75
2022-12-25T20:31:37.679Z,97589.16
2022-12-25T20:34:10.160Z,97580.25
2022-12-25T20:36:40.186Z,97579.34
2022-12-25T20:39:12.181Z,97580.25
2022-12-25T20:41:41.321Z,97587.91
2022-12-25T20:44:10.775Z,97597.41
2022-12-25T20:46:39.347Z,97591.63
2022-12-25T20:49:08.127Z,97589.06
2022-12-25T20:51:36.800Z,97592.63
2022-12-25T20:54:09.124Z,97593.16
2022-12-25T20:56:38.214Z,97594.50
2022-12-25T20:59:07.049Z,97594.75
2022-12-25T21:01:49.767Z,97594.44
2022-12-25T21:04:18.733Z,97602.13
2022-12-25T21:06:49.319Z,97600.88
2022-12-25T21:09:19.658Z,97597.63
2022-12-25T21:11:53.518Z,97602.16
2022-12-25T21:14:26.144Z,97604.28
2022-12-25T21:16:59.076Z,97609.22
2022-12-25T21:19:28.871Z,97600.19
2022-12-25T21:21:58.457Z,97600.16
2022-12-25T21:24:32.753Z,97608.81
2022-12-25T21:27:06.381Z,97608.63
2022-12-25T21:29:35.021Z,97606.22
2022-12-25T21:32:20.929Z,97599.94
2022-12-25T21:34:52.411Z,97595.78
2022-12-25T21:37:20.838Z,97597.81
2022-12-25T21:39:51.484Z,97599.00
2022-12-25T21:42:20.141Z,97590.97
2022-12-25T21:44:49.427Z,97604.59
2022-12-25T21:47:18.045Z,97595.06
2022-12-25T21:50:03.945Z,97593.84
2022-12-25T21:52:32.679Z,97606.91
2022-12-25T21:55:02.513Z,97608.50
2022-12-25T21:57:30.955Z,97611.25
2022-12-25T21:59:59.492Z,97615.69
2022-12-25T22:02:28.200Z,97615.22
2022-12-25T22:04:57.077Z,97616.56
2022-12-25T22:07:24.883Z,97609.59
2022-12-25T22:09:53.357Z,97617.97
2022-12-25T22:12:40.533Z,97624.00
2022-12-25T22:15:10.732Z,97628.88
2022-12-25T22:17:58.393Z,97623.75
2022-12-25T22:20:30.044Z,97626.31
2022-12-25T22:22:58.667Z,97623.94
2022-12-25T22:25:27.780Z,97629.22
2022-12-25T22:27:58.354Z,97628.38
2022-12-25T22:30:29.250Z,97635.13
2022-12-25T22:32:58.266Z,97633.50
2022-12-25T22:35:26.688Z,97633.38
2022-12-25T22:37:55.906Z,97640.09
2022-12-25T22:40:24.580Z,97639.16
2022-12-25T22:42:54.616Z,97639.72
2022-12-25T22:45:24.711Z,97641.66
2022-12-25T22:47:53.278Z,97640.97
2022-12-25T22:50:21.897Z,97648.72
2022-12-25T22:52:50.560Z,97639.41
2022-12-25T22:55:20.169Z,97637.50
2022-12-25T22:57:49.339Z,97640.00
2022-12-25T23:00:18.003Z,97635.41
2022-12-25T23:02:48.117Z,97631.03
2022-12-25T23:05:16.916Z,97630.03
2022-12-25T23:07:45.750Z,97636.88
2022-12-25T23:10:14.192Z,97637.63
2022-12-25T23:13:00.398Z,97638.22
2022-12-25T23:15:29.023Z,97642.41
2022-12-25T23:18:16.467Z,97644.97
2022-12-25T23:21:02.862Z,97644.81
2022-12-25T23:23:49.039Z,97649.63
2022-12-25T23:26:18.646Z,97650.38
2022-12-25T23:29:04.428Z,97657.72
2022-12-25T23:31:35.156Z,97667.31
2022-12-25T23:34:05.792Z,97661.19
2022-12-25T23:36:35.077Z,97676.41
2022-12-25T23:39:09.721Z,97667.38
2022-12-25T23:41:39.705Z,97666.69
2022-12-25T23:44:09.584Z,97672.81
2022-12-25T23:46:38.475Z,97668.78
2022-12-25T23:49:08.998Z,97680.97
2022-12-25T23:51:38.311Z,97675.13
2022-12-25T23:54:07.814Z,97683.13
2022-12-25T23:56:36.651Z,97682.44
2022-12-25T23:59:06.054Z,97685.31
